Time;durP1;ratioP1;P1;durP2;ratioP2;P2;SDS_P1;SDS_P2;PMS_P1;PMS_P2;Temp;Humidity;BMP_temperature;BMP_pressure;BME280_temperature;BME280_humidity;BME280_pressure;Samples;Min_cycle;Max_cycle;Signal;HPM_P1;HPM_P2
2020/12/04 00:00:09;;;;;;;3.15;1.50;;;3.50;99.90;;;;;;5074827;28;20786;-56
2020/12/04 00:02:36;;;;;;;2.72;1.52;;;3.40;99.90;;;;;;5074478;28;20491;-54
2020/12/04 00:05:03;;;;;;;3.40;1.60;;;3.30;99.90;;;;;;5074197;28;20459;-55
2020/12/04 00:07:29;;;;;;;3.35;1.40;;;3.30;99.90;;;;;;5084157;28;20467;-54
2020/12/04 00:09:56;;;;;;;3.25;1.80;;;3.50;99.90;;;;;;5094702;28;20868;-54
2020/12/04 00:12:23;;;;;;;3.90;1.50;;;3.60;99.90;;;;;;5094540;28;20773;-55
2020/12/04 00:14:49;;;;;;;2.58;1.40;;;3.50;99.90;;;;;;5094517;28;20783;-52
2020/12/04 00:17:17;;;;;;;4.05;1.70;;;3.70;99.90;;;;;;5094527;28;20430;-53
2020/12/04 00:19:43;;;;;;;4.57;1.70;;;3.80;99.90;;;;;;5094233;28;20884;-56
2020/12/04 00:22:10;;;;;;;3.28;1.60;;;3.80;99.90;;;;;;5093760;28;20470;-52
2020/12/04 00:24:37;;;;;;;4.95;1.50;;;3.60;99.90;;;;;;5094665;28;20446;-54
2020/12/04 00:27:03;;;;;;;2.50;1.50;;;3.60;99.90;;;;;;5094005;28;20890;-56
2020/12/04 00:29:29;;;;;;;4.63;1.52;;;3.50;99.90;;;;;;5094490;28;20884;-55
2020/12/04 00:31:57;;;;;;;2.93;1.40;;;3.40;99.90;;;;;;5094369;28;20862;-56
2020/12/04 00:34:25;;;;;;;3.50;1.55;;;3.30;99.90;;;;;;5094435;28;20457;-54
2020/12/04 00:36:51;;;;;;;5.30;2.00;;;3.20;99.90;;;;;;5093949;28;20457;-56
2020/12/04 00:39:18;;;;;;;3.17;1.70;;;3.10;99.90;;;;;;5094034;28;20438;-57
2020/12/04 00:41:45;;;;;;;3.77;1.60;;;3.10;99.90;;;;;;5094064;28;20445;-54
2020/12/04 00:44:11;;;;;;;4.50;1.55;;;3.00;99.90;;;;;;5093660;28;20512;-53
2020/12/04 00:46:38;;;;;;;3.20;1.50;;;3.00;99.90;;;;;;5094180;28;20511;-55
2020/12/04 00:49:05;;;;;;;4.32;1.65;;;3.00;99.90;;;;;;5094228;28;20790;-55
2020/12/04 00:51:32;;;;;;;3.20;1.60;;;3.00;99.90;;;;;;5093124;28;20825;-55
2020/12/04 00:53:59;;;;;;;3.90;1.52;;;3.00;99.90;;;;;;5092427;28;20469;-56
2020/12/04 00:56:31;;;;;;;3.40;1.33;;;3.00;99.90;;;;;;5092896;28;20445;-57
2020/12/04 00:58:58;;;;;;;4.00;1.43;;;3.00;99.90;;;;;;5091408;28;20426;-56
2020/12/04 01:01:25;;;;;;;4.22;1.67;;;3.00;99.90;;;;;;5092197;28;20414;-54
2020/12/04 01:03:51;;;;;;;6.00;1.98;;;3.00;99.90;;;;;;5092283;28;20480;-54
2020/12/04 01:06:17;;;;;;;4.15;1.48;;;2.90;99.90;;;;;;5092575;28;20829;-55
2020/12/04 01:08:45;;;;;;;3.72;1.60;;;3.00;99.90;;;;;;5094137;28;20514;-54
2020/12/04 01:11:12;;;;;;;2.40;1.40;;;3.00;99.90;;;;;;5093617;28;20441;-56
2020/12/04 01:13:38;;;;;;;4.35;1.50;;;3.10;99.90;;;;;;5092170;28;20418;-55
2020/12/04 01:16:09;;;;;;;3.60;1.90;;;3.00;99.90;;;;;;5096135;28;20461;-55
2020/12/04 01:18:35;;;;;;;4.50;2.10;;;3.00;99.90;;;;;;5096704;28;20729;-55
2020/12/04 01:21:02;;;;;;;3.40;1.33;;;2.90;99.90;;;;;;5094786;28;20460;-56
2020/12/04 01:23:28;;;;;;;4.80;1.70;;;3.10;99.90;;;;;;5093562;28;20422;-56
2020/12/04 01:25:56;;;;;;;3.50;1.70;;;3.20;99.90;;;;;;5096652;28;20799;-56
2020/12/04 01:28:22;;;;;;;4.40;1.52;;;3.30;99.90;;;;;;5097607;28;20461;-56
2020/12/04 01:30:49;;;;;;;3.63;1.40;;;3.30;99.90;;;;;;5097374;28;20869;-55
2020/12/04 01:33:15;;;;;;;3.65;1.60;;;3.30;99.90;;;;;;5096963;28;20445;-55
2020/12/04 01:35:42;;;;;;;4.22;1.60;;;3.30;99.90;;;;;;5096975;28;20468;-56
2020/12/04 01:38:08;;;;;;;4.57;1.60;;;3.20;99.90;;;;;;5094031;28;20425;-55
2020/12/04 01:40:35;;;;;;;5.10;1.97;;;3.20;99.90;;;;;;5096143;28;20448;-55
2020/12/04 01:43:02;;;;;;;4.43;2.00;;;3.20;99.90;;;;;;5096868;28;20511;-56
2020/12/04 01:45:29;;;;;;;2.95;1.50;;;3.10;99.90;;;;;;5097561;28;20453;-56
2020/12/04 01:47:56;;;;;;;4.50;1.90;;;3.10;99.90;;;;;;5097528;28;20441;-54
2020/12/04 01:50:24;;;;;;;3.10;1.30;;;3.00;99.90;;;;;;5097901;28;20864;-55
2020/12/04 01:52:51;;;;;;;4.32;1.90;;;2.90;99.90;;;;;;5097400;28;20702;-55
2020/12/04 01:55:18;;;;;;;4.32;2.05;;;2.90;99.90;;;;;;5097843;28;20458;-53
2020/12/04 01:57:46;;;;;;;4.28;1.40;;;2.80;99.90;;;;;;5096692;28;20465;-55
2020/12/04 02:00:14;;;;;;;4.90;1.90;;;2.80;99.90;;;;;;5096621;28;20518;-55
2020/12/04 02:02:43;;;;;;;4.45;1.60;;;2.80;99.90;;;;;;5095975;28;20886;-56
2020/12/04 02:05:10;;;;;;;3.60;1.60;;;2.80;99.90;;;;;;5095923;28;20430;-55
2020/12/04 02:07:46;;;;;;;5.20;2.10;;;2.80;99.90;;;;;;5095803;28;20937;-55
2020/12/04 02:10:21;;;;;;;4.60;2.15;;;2.80;99.90;;;;;;5096244;28;20515;-56
2020/12/04 02:12:49;;;;;;;4.88;2.08;;;2.80;99.90;;;;;;5096367;28;20457;-52
2020/12/04 02:15:18;;;;;;;6.50;2.45;;;2.80;99.90;;;;;;5095685;28;20449;-55
2020/12/04 02:17:45;;;;;;;4.75;1.50;;;2.90;99.90;;;;;;5095662;28;20437;-54
2020/12/04 02:20:13;;;;;;;5.40;2.50;;;2.90;99.90;;;;;;5097343;28;20457;-55
2020/12/04 02:22:40;;;;;;;5.32;2.03;;;2.90;99.90;;;;;;5096456;28;20414;-55
2020/12/04 02:25:09;;;;;;;3.47;1.95;;;3.00;99.90;;;;;;5096647;28;20457;-55
2020/12/04 02:27:43;;;;;;;6.20;1.80;;;3.00;99.90;;;;;;5095585;28;20496;-54
2020/12/04 02:30:12;;;;;;;6.00;2.30;;;3.00;99.90;;;;;;5096845;28;20454;-55
2020/12/04 02:32:38;;;;;;;3.35;2.10;;;3.00;99.90;;;;;;5096592;28;20437;-56
2020/12/04 02:35:05;;;;;;;5.55;2.08;;;3.00;99.90;;;;;;5096490;28;21025;-56
2020/12/04 02:37:31;;;;;;;5.30;2.00;;;3.10;99.90;;;;;;5096227;28;20812;-53
2020/12/04 02:39:59;;;;;;;2.88;1.80;;;3.00;99.90;;;;;;5096685;28;20469;-55
2020/12/04 02:42:25;;;;;;;4.10;2.30;;;3.00;99.90;;;;;;5096013;28;20432;-52
2020/12/04 02:44:52;;;;;;;4.80;1.88;;;3.00;99.90;;;;;;5094916;28;20457;-57
2020/12/04 02:47:18;;;;;;;3.90;1.83;;;2.90;99.90;;;;;;5094770;28;20461;-56
2020/12/04 02:49:44;;;;;;;3.95;1.63;;;2.90;99.90;;;;;;5094717;28;20457;-57
2020/12/04 02:52:11;;;;;;;4.40;1.50;;;2.90;99.90;;;;;;5094486;28;20438;-54
2020/12/04 02:54:37;;;;;;;3.97;1.73;;;3.00;99.90;;;;;;5095203;28;20516;-56
2020/12/04 02:57:05;;;;;;;5.00;1.70;;;3.00;99.90;;;;;;5094063;28;20457;-51
2020/12/04 02:59:31;;;;;;;3.97;2.00;;;2.90;99.90;;;;;;5094816;28;20554;-54
2020/12/04 03:01:58;;;;;;;5.20;2.20;;;2.90;99.90;;;;;;5095099;28;20450;-55
2020/12/04 03:04:24;;;;;;;4.13;1.88;;;3.00;99.90;;;;;;5095573;28;20593;-56
2020/12/04 03:06:50;;;;;;;3.53;1.50;;;3.00;99.90;;;;;;5094901;28;20447;-55
2020/12/04 03:09:17;;;;;;;4.05;1.55;;;3.00;99.90;;;;;;5095129;28;20778;-54
2020/12/04 03:11:43;;;;;;;4.68;2.20;;;2.90;99.90;;;;;;5094991;28;20468;-55
2020/12/04 03:14:11;;;;;;;3.33;1.50;;;2.90;99.90;;;;;;5095121;28;21067;-54
2020/12/04 03:16:37;;;;;;;3.75;1.63;;;3.00;99.90;;;;;;5095523;28;20438;-56
2020/12/04 03:19:04;;;;;;;3.58;1.95;;;3.00;99.90;;;;;;5095232;28;20437;-49
2020/12/04 03:21:30;;;;;;;4.20;1.70;;;3.00;99.90;;;;;;5095633;28;20461;-60
2020/12/04 03:23:57;;;;;;;5.30;1.42;;;2.90;99.90;;;;;;5095515;28;20422;-55
2020/12/04 03:26:24;;;;;;;5.10;1.70;;;2.90;99.90;;;;;;5096230;28;20442;-53
2020/12/04 03:28:50;;;;;;;3.70;1.70;;;2.90;99.90;;;;;;5095440;28;20418;-56
2020/12/04 03:31:17;;;;;;;3.55;1.50;;;2.90;99.90;;;;;;5095685;28;20837;-54
2020/12/04 03:33:44;;;;;;;3.80;1.70;;;2.90;99.90;;;;;;5095757;28;20457;-56
2020/12/04 03:36:10;;;;;;;2.70;1.38;;;3.00;99.90;;;;;;5095413;28;20450;-54
2020/12/04 03:38:37;;;;;;;4.40;1.60;;;3.20;99.90;;;;;;5094788;28;20494;-55
2020/12/04 03:41:03;;;;;;;3.88;1.48;;;3.40;99.90;;;;;;5095456;28;20497;-53
2020/12/04 03:43:30;;;;;;;4.57;1.63;;;3.60;99.90;;;;;;5095498;28;20453;-54
2020/12/04 03:45:56;;;;;;;5.07;1.85;;;3.80;99.90;;;;;;5095347;28;20457;-55
2020/12/04 03:48:23;;;;;;;4.22;1.70;;;3.70;99.90;;;;;;5095409;28;20429;-54
2020/12/04 03:50:50;;;;;;;4.55;1.67;;;3.50;99.90;;;;;;5095116;28;20504;-55
2020/12/04 03:53:16;;;;;;;4.85;1.90;;;3.60;99.90;;;;;;5095283;28;20469;-54
2020/12/04 03:55:43;;;;;;;3.97;1.52;;;3.60;99.90;;;;;;5094640;28;20460;-56
2020/12/04 03:58:09;;;;;;;2.53;1.40;;;3.70;99.90;;;;;;5095213;28;20461;-56
2020/12/04 04:00:39;;;;;;;3.17;1.50;;;3.80;99.90;;;;;;5095166;28;20522;-54
2020/12/04 04:03:05;;;;;;;3.83;1.50;;;4.00;99.90;;;;;;5095102;28;20429;-55
2020/12/04 04:05:32;;;;;;;3.75;1.60;;;4.00;99.90;;;;;;5095476;28;20437;-54
2020/12/04 04:07:59;;;;;;;3.95;1.77;;;3.90;99.90;;;;;;5094711;28;20450;-53
2020/12/04 04:10:25;;;;;;;4.53;1.50;;;3.70;99.90;;;;;;5095213;28;20477;-55
2020/12/04 04:12:52;;;;;;;4.93;1.65;;;3.60;99.90;;;;;;5094976;28;20445;-52
2020/12/04 04:15:18;;;;;;;3.13;1.83;;;3.50;99.90;;;;;;5094632;28;20425;-54
2020/12/04 04:17:44;;;;;;;6.18;1.60;;;3.40;99.90;;;;;;5094971;28;20469;-56
2020/12/04 04:20:11;;;;;;;3.53;1.63;;;3.30;99.90;;;;;;5094676;28;20724;-51
2020/12/04 04:22:38;;;;;;;3.93;1.80;;;3.20;99.90;;;;;;5094808;28;20456;-54
2020/12/04 04:25:05;;;;;;;3.53;1.50;;;3.10;99.90;;;;;;5094904;28;20457;-55
2020/12/04 04:27:31;;;;;;;3.72;1.40;;;3.00;99.90;;;;;;5094860;28;20520;-55
2020/12/04 04:29:58;;;;;;;3.35;1.58;;;3.00;99.90;;;;;;5095130;28;20484;-54
2020/12/04 04:32:24;;;;;;;3.40;1.70;;;3.20;99.90;;;;;;5094360;28;20417;-54
2020/12/04 04:34:51;;;;;;;4.78;1.58;;;3.20;99.90;;;;;;5094492;28;20793;-53
2020/12/04 04:37:17;;;;;;;3.33;1.30;;;3.20;99.90;;;;;;5094775;28;20487;-55
2020/12/04 04:39:45;;;;;;;4.40;1.90;;;3.30;99.90;;;;;;5094610;28;20444;-54
2020/12/04 04:42:11;;;;;;;3.53;1.50;;;3.30;99.90;;;;;;5093975;28;20418;-55
2020/12/04 04:44:38;;;;;;;3.80;1.58;;;3.30;99.90;;;;;;5094132;28;20861;-53
2020/12/04 04:47:06;;;;;;;4.55;1.77;;;3.30;99.90;;;;;;5094558;28;20421;-55
2020/12/04 04:49:45;;;;;;;3.03;1.50;;;3.40;99.90;;;;;;5095531;28;20421;-53
2020/12/04 04:52:12;;;;;;;2.47;1.25;;;3.50;99.90;;;;;;5098167;28;20421;-55
2020/12/04 04:54:44;;;;;;;2.83;1.33;;;3.60;99.90;;;;;;5098459;28;20468;-56
2020/12/04 04:57:12;;;;;;;2.80;1.30;;;3.70;99.90;;;;;;5098297;28;20478;-55
2020/12/04 04:59:39;;;;;;;5.97;1.90;;;3.80;99.90;;;;;;5098548;28;20741;-55
2020/12/04 05:02:05;;;;;;;2.90;1.42;;;3.80;99.90;;;;;;5098567;28;20405;-52
2020/12/04 05:04:50;;;;;;;3.95;2.00;;;3.90;99.90;;;;;;5098412;28;20762;-56
2020/12/04 05:07:18;;;;;;;2.90;1.40;;;3.90;99.90;;;;;;5097897;28;20475;-53
2020/12/04 05:09:44;;;;;;;3.50;1.65;;;3.80;99.90;;;;;;5098553;28;20414;-56
2020/12/04 05:12:16;;;;;;;4.47;1.50;;;3.70;99.90;;;;;;5098203;28;20454;-55
2020/12/04 05:14:43;;;;;;;3.25;1.40;;;3.50;99.90;;;;;;5098245;28;20445;-55
2020/12/04 05:17:10;;;;;;;3.37;1.50;;;3.40;99.90;;;;;;5097934;28;20464;-56
2020/12/04 05:19:38;;;;;;;3.50;1.60;;;3.40;99.90;;;;;;5097586;28;20465;-56
2020/12/04 05:22:11;;;;;;;3.88;1.33;;;3.40;99.90;;;;;;5098308;28;20413;-54
2020/12/04 05:24:38;;;;;;;3.10;1.50;;;3.40;99.90;;;;;;5097774;28;20749;-56
2020/12/04 05:27:25;;;;;;;2.40;1.50;;;3.50;99.90;;;;;;5097674;28;20443;-57
2020/12/04 05:29:56;;;;;;;3.17;1.40;;;3.50;99.90;;;;;;5097269;28;20516;-55
2020/12/04 05:32:23;;;;;;;2.90;1.40;;;3.50;99.90;;;;;;5097891;28;20417;-55
2020/12/04 05:34:50;;;;;;;3.90;1.20;;;3.60;99.90;;;;;;5097591;28;20841;-55
2020/12/04 05:37:19;;;;;;;3.25;1.20;;;3.60;99.90;;;;;;5097844;28;20449;-55
2020/12/04 05:39:48;;;;;;;3.30;1.33;;;3.60;99.90;;;;;;5097437;28;20490;-55
2020/12/04 05:42:31;;;;;;;4.60;1.50;;;3.80;99.90;;;;;;5097789;28;20486;-54
2020/12/04 05:44:57;;;;;;;2.10;1.20;;;3.80;99.90;;;;;;5097372;28;20422;-54
2020/12/04 05:47:35;;;;;;;3.08;1.40;;;3.90;99.90;;;;;;5097525;28;20532;-54
2020/12/04 05:50:03;;;;;;;4.05;1.27;;;4.00;99.90;;;;;;5097355;28;20457;-56
2020/12/04 05:52:30;;;;;;;2.38;1.20;;;4.00;99.90;;;;;;5096862;28;20821;-54
2020/12/04 05:54:59;;;;;;;2.60;1.02;;;4.00;99.90;;;;;;5097455;28;20783;-54
2020/12/04 05:57:28;;;;;;;2.83;1.37;;;4.00;99.90;;;;;;5095916;28;20825;-53
2020/12/04 05:59:55;;;;;;;2.42;1.20;;;4.00;99.90;;;;;;5096494;28;20912;-57
2020/12/04 06:02:22;;;;;;;1.80;1.20;;;4.00;99.90;;;;;;5096973;28;20487;-57
2020/12/04 06:04:48;;;;;;;2.55;1.02;;;4.00;99.90;;;;;;5097120;28;20453;-55
2020/12/04 06:07:24;;;;;;;2.65;0.90;;;3.90;99.90;;;;;;5096753;28;20509;-56
2020/12/04 06:09:54;;;;;;;1.65;1.00;;;4.00;99.90;;;;;;5095593;28;20516;-55
2020/12/04 06:12:20;;;;;;;1.70;0.90;;;4.00;99.90;;;;;;5094541;28;20508;-55
2020/12/04 06:14:47;;;;;;;3.35;1.10;;;4.00;99.90;;;;;;5095965;28;20544;-53
2020/12/04 06:17:14;;;;;;;2.42;0.98;;;4.00;99.90;;;;;;5095954;28;20484;-56
2020/12/04 06:19:42;;;;;;;2.25;1.10;;;4.00;99.90;;;;;;5096358;28;20473;-54
2020/12/04 06:22:10;;;;;;;2.10;1.00;;;3.90;99.90;;;;;;5111187;27;20427;-56
2020/12/04 06:25:02;;;;;;;2.40;1.13;;;3.90;99.90;;;;;;5115124;28;20512;-56
2020/12/04 06:27:43;;;;;;;2.20;0.90;;;3.90;99.90;;;;;;5113824;28;20562;-55
2020/12/04 06:30:11;;;;;;;2.13;1.20;;;3.90;99.90;;;;;;5113309;28;20543;-57
2020/12/04 06:32:42;;;;;;;1.70;1.02;;;3.90;99.90;;;;;;5114552;28;20416;-56
2020/12/04 06:35:09;;;;;;;2.53;1.10;;;4.00;99.90;;;;;;5115874;28;20424;-55
2020/12/04 06:37:38;;;;;;;2.70;1.20;;;4.10;99.90;;;;;;5115625;28;20501;-55
2020/12/04 06:40:28;;;;;;;3.00;1.20;;;4.10;99.90;;;;;;5113795;28;20524;-58
2020/12/04 06:42:55;;;;;;;1.67;1.00;;;4.10;99.90;;;;;;5116078;28;20417;-55
2020/12/04 06:45:22;;;;;;;1.60;1.00;;;4.10;99.90;;;;;;5118175;27;20436;-56
2020/12/04 06:48:12;;;;;;;2.10;1.20;;;4.00;99.90;;;;;;5122455;27;20420;-57
2020/12/04 06:50:43;;;;;;;2.83;1.38;;;3.90;99.90;;;;;;5094498;28;20996;-54
2020/12/04 06:53:12;;;;;;;2.50;1.20;;;3.90;99.90;;;;;;5094535;28;20437;-55
2020/12/04 06:55:40;;;;;;;2.33;1.40;;;3.80;99.90;;;;;;5095492;28;20819;-55
2020/12/04 06:58:07;;;;;;;3.20;1.30;;;3.90;99.90;;;;;;5095411;28;20477;-54
2020/12/04 07:00:34;;;;;;;3.47;1.30;;;3.90;99.90;;;;;;5110786;28;20888;-53
2020/12/04 07:03:02;;;;;;;3.70;1.40;;;3.90;99.90;;;;;;5114598;28;20416;-54
2020/12/04 07:05:32;;;;;;;3.05;1.50;;;3.80;99.90;;;;;;5114459;28;20448;-55
2020/12/04 07:08:03;;;;;;;3.73;1.20;;;3.90;99.90;;;;;;5110258;28;20752;-55
2020/12/04 07:10:31;;;;;;;3.35;1.20;;;4.00;99.90;;;;;;5109307;27;20447;-54
2020/12/04 07:12:59;;;;;;;1.85;1.10;;;4.10;99.90;;;;;;5110857;28;20503;-55
2020/12/04 07:15:26;;;;;;;5.50;1.50;;;4.20;99.90;;;;;;5104371;28;20522;-54
2020/12/04 07:17:53;;;;;;;3.15;1.30;;;4.10;99.90;;;;;;5108769;27;20860;-55
2020/12/04 07:20:19;;;;;;;4.50;1.77;;;4.00;99.90;;;;;;5113584;28;20432;-55
2020/12/04 07:22:47;;;;;;;4.63;2.10;;;3.90;99.90;;;;;;5114333;28;20773;-57
2020/12/04 07:25:14;;;;;;;2.88;1.30;;;3.80;99.90;;;;;;5112686;28;20486;-55
2020/12/04 07:27:40;;;;;;;3.30;1.55;;;3.80;99.90;;;;;;5114062;27;20735;-55
2020/12/04 07:30:14;;;;;;;3.25;1.30;;;3.80;99.90;;;;;;5114069;28;20876;-56
2020/12/04 07:32:49;;;;;;;4.10;1.50;;;3.70;99.90;;;;;;5109849;27;20412;-57
2020/12/04 07:35:15;;;;;;;3.93;1.40;;;3.70;99.90;;;;;;5113821;28;20432;-58
2020/12/04 07:37:42;;;;;;;2.90;1.30;;;3.70;99.90;;;;;;5112645;28;20479;-58
2020/12/04 07:40:09;;;;;;;3.97;1.70;;;3.70;99.90;;;;;;5110944;28;20424;-58
2020/12/04 07:42:36;;;;;;;6.18;1.80;;;3.80;99.90;;;;;;5111797;27;20963;-59
2020/12/04 07:45:03;;;;;;;6.07;1.60;;;3.90;99.90;;;;;;5103009;28;20460;-59
2020/12/04 07:47:30;;;;;;;2.45;1.40;;;3.90;99.90;;;;;;5113667;28;20416;-59
2020/12/04 07:50:00;;;;;;;3.65;1.80;;;4.00;99.90;;;;;;5114549;28;20428;-59
2020/12/04 07:52:29;;;;;;;4.00;1.50;;;4.10;99.90;;;;;;5110585;28;20423;-59
2020/12/04 07:54:57;;;;;;;3.17;1.58;;;4.30;99.90;;;;;;5112400;27;20436;-58
2020/12/04 07:57:31;;;;;;;2.75;1.40;;;4.40;99.90;;;;;;5111342;28;20464;-58
2020/12/04 07:59:59;;;;;;;2.85;1.48;;;4.50;99.90;;;;;;5112375;28;20439;-59
2020/12/04 08:02:27;;;;;;;2.45;1.40;;;4.30;99.90;;;;;;5109134;28;20457;-59
2020/12/04 08:04:55;;;;;;;3.85;1.40;;;4.40;99.90;;;;;;5114605;27;20920;-59
2020/12/04 08:07:27;;;;;;;3.65;1.40;;;4.40;99.90;;;;;;5112319;28;20468;-59
2020/12/04 08:09:53;;;;;;;2.90;1.30;;;4.30;99.90;;;;;;5113465;28;20497;-58
2020/12/04 08:12:27;;;;;;;2.53;1.23;;;4.30;99.90;;;;;;5113085;28;21015;-58
2020/12/04 08:14:56;;;;;;;3.07;1.50;;;4.50;99.90;;;;;;5113021;28;20428;-59
2020/12/04 08:17:25;;;;;;;2.33;1.48;;;4.50;99.90;;;;;;5106399;28;20433;-59
2020/12/04 08:19:52;;;;;;;5.10;2.00;;;4.50;99.90;;;;;;5110981;28;20424;-58
2020/12/04 08:22:27;;;;;;;3.33;1.40;;;4.70;99.90;;;;;;5112308;28;20409;-59
2020/12/04 08:25:03;;;;;;;4.65;1.50;;;4.60;99.90;;;;;;5105547;28;20481;-60
2020/12/04 08:27:30;;;;;;;3.00;1.40;;;4.50;99.90;;;;;;5112027;28;20424;-59
2020/12/04 08:30:07;;;;;;;4.50;1.65;;;4.60;99.90;;;;;;5112274;28;20761;-59
2020/12/04 08:32:34;;;;;;;2.92;1.38;;;4.90;99.90;;;;;;5109653;28;20416;-58
2020/12/04 08:35:09;;;;;;;5.22;1.48;;;5.00;99.90;;;;;;5113345;28;20428;-58
2020/12/04 08:37:35;;;;;;;2.58;1.38;;;4.90;99.90;;;;;;5112777;28;20438;-59
2020/12/04 08:40:02;;;;;;;2.70;1.38;;;4.80;99.90;;;;;;5113119;28;20727;-59
2020/12/04 08:42:32;;;;;;;3.45;1.20;;;4.80;99.90;;;;;;5111800;28;20424;-58
2020/12/04 08:45:06;;;;;;;4.00;1.50;;;5.40;99.90;;;;;;5112168;28;20511;-59
2020/12/04 08:47:39;;;;;;;3.20;1.40;;;5.70;99.90;;;;;;5110859;28;20416;-59
2020/12/04 08:50:08;;;;;;;3.67;1.20;;;5.70;99.90;;;;;;5112747;28;20494;-59
2020/12/04 08:52:36;;;;;;;5.63;1.75;;;5.50;99.90;;;;;;5111745;28;20451;-59
2020/12/04 08:55:14;;;;;;;4.20;1.60;;;5.30;99.90;;;;;;5111695;28;20516;-59
2020/12/04 08:57:42;;;;;;;3.90;1.60;;;5.10;99.90;;;;;;5111845;28;20832;-59
2020/12/04 09:00:12;;;;;;;2.90;1.20;;;5.00;99.90;;;;;;5106132;28;20495;-58
2020/12/04 09:02:39;;;;;;;3.80;1.70;;;5.50;99.90;;;;;;5114440;28;20573;-58
2020/12/04 09:05:08;;;;;;;5.70;1.30;;;5.60;99.90;;;;;;5109234;28;20728;-58
2020/12/04 09:07:34;;;;;;;3.80;1.90;;;5.60;99.90;;;;;;5110287;28;20514;-58
2020/12/04 09:10:02;;;;;;;2.15;1.50;;;5.60;99.90;;;;;;5105698;28;20431;-58
2020/12/04 09:12:29;;;;;;;4.63;1.60;;;5.40;99.90;;;;;;5111011;28;20724;-58
2020/12/04 09:14:56;;;;;;;2.70;1.20;;;5.40;99.90;;;;;;5112605;28;20436;-58
2020/12/04 09:17:31;;;;;;;4.90;1.50;;;5.50;99.90;;;;;;5111962;28;20420;-59
2020/12/04 09:19:58;;;;;;;3.67;1.40;;;5.50;99.90;;;;;;5111853;28;20523;-58
2020/12/04 09:22:25;;;;;;;5.93;1.60;;;5.50;99.90;;;;;;5099297;28;20749;-58
2020/12/04 09:24:51;;;;;;;5.88;1.60;;;5.30;99.90;;;;;;5106887;28;20436;-58
2020/12/04 09:27:18;;;;;;;4.15;1.83;;;5.10;99.90;;;;;;5111615;28;20420;-58
2020/12/04 09:29:49;;;;;;;5.03;1.60;;;5.10;99.90;;;;;;5101808;28;20485;-58
2020/12/04 09:32:17;;;;;;;3.85;1.70;;;5.10;99.90;;;;;;5110454;28;20455;-60
2020/12/04 09:34:46;;;;;;;3.97;1.92;;;4.90;99.90;;;;;;5109718;28;20428;-57
2020/12/04 09:37:18;;;;;;;4.05;1.42;;;4.80;99.90;;;;;;5113110;28;20492;-58
2020/12/04 09:39:46;;;;;;;4.40;1.70;;;4.80;99.90;;;;;;5114521;28;20471;-59
2020/12/04 09:42:13;;;;;;;2.70;1.40;;;4.80;99.90;;;;;;5113973;28;20505;-58
2020/12/04 09:44:41;;;;;;;9.27;2.27;;;4.90;99.90;;;;;;5114596;28;20423;-58
2020/12/04 09:47:08;;;;;;;3.88;1.70;;;4.90;99.90;;;;;;5114288;28;20428;-58
2020/12/04 09:49:35;;;;;;;4.63;1.58;;;5.00;99.90;;;;;;5114681;28;20436;-58
2020/12/04 09:52:04;;;;;;;5.93;1.60;;;5.40;99.90;;;;;;5116376;28;20424;-59
2020/12/04 09:54:32;;;;;;;4.28;1.60;;;5.20;99.90;;;;;;5102412;28;20982;-59
2020/12/04 09:56:59;;;;;;;5.70;1.70;;;5.20;99.90;;;;;;5107763;28;20436;-58
2020/12/04 09:59:26;;;;;;;3.25;1.23;;;5.20;99.90;;;;;;5109936;28;20463;-59
2020/12/04 10:01:54;;;;;;;6.27;1.90;;;5.30;99.90;;;;;;5114010;28;20420;-60
2020/12/04 10:04:21;;;;;;;5.28;2.20;;;5.40;99.90;;;;;;5112210;28;20912;-60
2020/12/04 10:06:48;;;;;;;4.53;1.58;;;5.50;99.90;;;;;;5113841;27;20472;-60
2020/12/04 10:09:15;;;;;;;5.22;1.60;;;5.70;99.90;;;;;;5110672;28;20460;-60
2020/12/04 10:11:43;;;;;;;4.10;1.50;;;5.70;99.90;;;;;;5113110;28;20424;-60
2020/12/04 10:14:10;;;;;;;5.43;1.63;;;6.00;99.90;;;;;;5112679;28;20467;-60
2020/12/04 10:16:37;;;;;;;4.38;2.20;;;6.30;99.90;;;;;;5112482;28;20429;-60
2020/12/04 10:19:03;;;;;;;6.28;3.20;;;6.30;99.90;;;;;;5113398;28;20834;-59
2020/12/04 10:21:34;;;;;;;5.60;2.60;;;6.10;99.90;;;;;;5114686;28;20888;-60
2020/12/04 10:24:00;;;;;;;5.53;2.30;;;5.90;99.90;;;;;;5112680;28;20527;-60
2020/12/04 10:26:28;;;;;;;5.28;1.70;;;5.70;99.90;;;;;;5113166;28;20416;-60
2020/12/04 10:28:55;;;;;;;4.47;1.75;;;5.70;99.90;;;;;;5113620;28;20516;-60
2020/12/04 10:31:22;;;;;;;4.27;1.80;;;5.70;99.90;;;;;;5112855;28;20424;-59
2020/12/04 10:33:48;;;;;;;4.00;1.87;;;5.50;99.90;;;;;;5112549;28;20436;-60
2020/12/04 10:36:15;;;;;;;4.20;1.73;;;5.40;99.90;;;;;;5111196;28;20420;-60
2020/12/04 10:38:42;;;;;;;7.35;1.90;;;5.40;99.90;;;;;;5112824;28;20890;-59
2020/12/04 10:41:09;;;;;;;4.43;1.60;;;5.50;99.90;;;;;;5112306;28;20485;-60
2020/12/04 10:43:36;;;;;;;4.90;2.22;;;5.30;99.90;;;;;;5113715;28;20424;-60
2020/12/04 10:46:03;;;;;;;3.65;1.60;;;5.30;99.90;;;;;;5113799;28;20446;-59
2020/12/04 10:48:29;;;;;;;2.78;1.30;;;5.20;99.90;;;;;;5111850;28;20428;-59
2020/12/04 10:50:56;;;;;;;3.03;1.30;;;5.20;99.90;;;;;;5113054;28;20424;-59
2020/12/04 10:53:26;;;;;;;5.35;1.40;;;5.40;99.90;;;;;;5113195;28;20456;-59
2020/12/04 10:55:52;;;;;;;3.20;1.40;;;5.40;99.90;;;;;;5112430;28;20472;-59
2020/12/04 10:58:19;;;;;;;3.35;1.60;;;5.40;99.90;;;;;;5112737;28;20750;-59
2020/12/04 11:00:49;;;;;;;3.17;1.40;;;5.40;99.90;;;;;;5112454;28;20497;-59
2020/12/04 11:03:26;;;;;;;3.13;1.70;;;5.60;99.90;;;;;;5113329;28;20473;-59
2020/12/04 11:05:52;;;;;;;3.47;1.48;;;6.00;99.90;;;;;;5104409;28;20843;-59
2020/12/04 11:08:18;;;;;;;4.65;2.20;;;6.50;99.90;;;;;;5113851;28;20460;-59
2020/12/04 11:10:46;;;;;;;5.27;1.80;;;6.80;99.90;;;;;;5113898;28;20424;-59
2020/12/04 11:13:13;;;;;;;3.33;1.48;;;6.60;99.90;;;;;;5109814;28;20591;-59
2020/12/04 11:15:40;;;;;;;3.60;1.40;;;6.20;99.90;;;;;;5110894;28;20428;-59
2020/12/04 11:18:07;;;;;;;3.38;1.50;;;6.20;99.90;;;;;;5113319;28;20504;-59
2020/12/04 11:20:33;;;;;;;3.20;1.50;;;6.10;99.90;;;;;;5113518;28;20421;-59
2020/12/04 11:23:00;;;;;;;5.63;1.38;;;6.10;99.90;;;;;;5113287;28;20456;-60
2020/12/04 11:25:27;;;;;;;3.17;1.80;;;6.40;99.90;;;;;;5112099;28;20420;-59
2020/12/04 11:27:53;;;;;;;2.53;1.27;;;6.30;99.90;;;;;;5112583;28;20420;-60
2020/12/04 11:30:21;;;;;;;2.30;1.30;;;6.20;99.90;;;;;;5112828;28;20839;-59
2020/12/04 11:32:49;;;;;;;2.53;1.50;;;6.40;99.90;;;;;;5110797;28;20480;-59
2020/12/04 11:35:19;;;;;;;3.75;1.45;;;6.70;99.90;;;;;;5111615;28;20551;-60
2020/12/04 11:37:48;;;;;;;3.90;1.40;;;6.40;99.90;;;;;;5112687;28;20496;-60
2020/12/04 11:40:17;;;;;;;2.20;1.10;;;6.20;99.90;;;;;;5113503;28;20500;-59
2020/12/04 11:42:45;;;;;;;3.10;1.30;;;6.60;99.90;;;;;;5113099;28;20413;-60
2020/12/04 11:45:13;;;;;;;3.17;1.30;;;7.00;99.90;;;;;;5112403;28;20432;-60
2020/12/04 11:47:40;;;;;;;2.80;1.30;;;7.00;99.90;;;;;;5112207;28;20448;-60
2020/12/04 11:50:09;;;;;;;3.80;1.30;;;7.20;99.90;;;;;;5113824;28;20416;-60
2020/12/04 11:52:36;;;;;;;4.10;1.60;;;7.50;99.90;;;;;;5108267;28;20421;-60
2020/12/04 11:55:04;;;;;;;5.95;1.67;;;7.50;99.90;;;;;;5114227;28;20449;-60
2020/12/04 11:57:30;;;;;;;3.47;1.73;;;7.60;99.90;;;;;;5113755;28;20469;-59
2020/12/04 11:59:57;;;;;;;3.13;1.50;;;7.30;99.90;;;;;;5113255;28;20490;-58
2020/12/04 12:02:31;;;;;;;5.30;1.50;;;6.90;99.90;;;;;;5111742;28;20424;-60
2020/12/04 12:04:57;;;;;;;3.45;1.40;;;7.00;99.90;;;;;;5112308;28;20427;-60
2020/12/04 12:07:24;;;;;;;4.93;2.35;;;7.10;99.90;;;;;;5112839;28;20528;-60
2020/12/04 12:09:51;;;;;;;5.15;1.95;;;7.30;99.90;;;;;;5112903;28;20424;-60
2020/12/04 12:12:19;;;;;;;4.90;1.50;;;7.20;99.90;;;;;;5112241;28;20499;-60
2020/12/04 12:14:47;;;;;;;4.90;1.35;;;7.20;99.90;;;;;;5106485;28;20431;-59
2020/12/04 12:17:14;;;;;;;4.30;1.50;;;7.40;99.90;;;;;;5110626;27;20424;-60
2020/12/04 12:19:42;;;;;;;3.53;1.60;;;7.30;99.90;;;;;;5111213;28;20497;-60
2020/12/04 12:22:10;;;;;;;5.20;1.90;;;7.20;99.90;;;;;;5110652;28;20431;-62
2020/12/04 12:24:37;;;;;;;4.47;1.85;;;7.10;99.90;;;;;;5110337;28;20427;-61
2020/12/04 12:27:06;;;;;;;3.10;2.00;;;7.00;99.90;;;;;;5107737;28;20428;-60
2020/12/04 12:29:33;;;;;;;4.07;1.30;;;6.80;99.90;;;;;;5106487;27;20810;-60
2020/12/04 12:32:00;;;;;;;3.50;1.73;;;6.80;99.90;;;;;;5111319;28;20501;-60
2020/12/04 12:37:20;;;;;;;5.93;2.45;;;7.20;99.90;;;;;;5112210;27;20367;-60
2020/12/04 12:39:46;;;;;;;4.88;1.40;;;6.80;99.90;;;;;;5096446;28;20854;-60
2020/12/04 12:42:15;;;;;;;5.15;1.80;;;6.60;99.90;;;;;;5087506;28;20415;-61
2020/12/04 12:44:42;;;;;;;3.28;1.70;;;6.60;99.90;;;;;;5074827;28;20432;-60
2020/12/04 12:47:15;;;;;;;3.45;1.48;;;6.70;99.90;;;;;;5086063;28;20484;-60
2020/12/04 12:49:44;;;;;;;5.57;2.30;;;6.90;99.90;;;;;;5081766;28;20445;-61
2020/12/04 12:52:12;;;;;;;3.53;1.75;;;6.90;99.90;;;;;;5086004;28;20794;-60
2020/12/04 12:54:40;;;;;;;5.10;1.70;;;6.80;99.90;;;;;;5087148;28;20427;-61
2020/12/04 12:57:06;;;;;;;4.00;1.90;;;6.70;99.90;;;;;;5100778;28;20427;-55
2020/12/04 12:59:33;;;;;;;5.30;2.10;;;6.90;99.90;;;;;;5099233;28;20427;-53
2020/12/04 13:02:00;;;;;;;3.80;1.75;;;7.00;99.90;;;;;;5087949;28;20415;-53
2020/12/04 13:04:27;;;;;;;5.50;1.60;;;6.90;99.90;;;;;;5088544;28;20435;-59